aviador You're here:

LYUZ Decoded Metar

UZICE PONIKVE in SERBIA
Report Time2018-05-28 07:30:00
UTC Time2018-05-28 08:03:42
Flight Rules vfr VFR
Wind070° at 05 kt
W.Rank070° ranks 18
Current wind is above 070° avg. (4.8)
Visibility9999 m
Phenomena:N/A
Clouds:Few 020 Hf
Expected CloudBase > 1,200 ft AGL from Temp-Dew spread
CeilingNone
Temp20°C (ISA +11)
Dew Point17°C (83% RH)
QNH1023 hPa
Density Alt4,226 ft
Elevation3,012 ft
Report Wrong Elevation
Raw Report
METAR LYUZ 280730Z 07005KT 030V110 9999 FEW020 20/17 Q1023=

Extra information for LYUZ:More info

Metar Taf Metar & Taf Last 4 Metars F.Rules Stats Wind Profile Meteogram Temp Stats Airport Information Weather charts Add Link Nearby VenuesMetar ALERT Operation Metar Decoded Social comments